sensor_id;sensor_type;location;lat;lon;timestamp;temperature;humidity
21439;DHT22;10880;50.302;18.736;2023-06-10T00:01:59;21.90;66.20
21439;DHT22;10880;50.302;18.736;2023-06-10T00:04:27;21.90;66.30
21439;DHT22;10880;50.302;18.736;2023-06-10T00:06:54;21.90;66.30
21439;DHT22;10880;50.302;18.736;2023-06-10T00:09:20;21.90;66.50
21439;DHT22;10880;50.302;18.736;2023-06-10T00:11:48;21.90;66.50
21439;DHT22;10880;50.302;18.736;2023-06-10T00:16:41;21.90;66.30
21439;DHT22;10880;50.302;18.736;2023-06-10T00:19:11;21.90;66.70
21439;DHT22;10880;50.302;18.736;2023-06-10T00:21:39;21.90;66.50
21439;DHT22;10880;50.302;18.736;2023-06-10T00:24:07;21.90;66.40
21439;DHT22;10880;50.302;18.736;2023-06-10T00:26:38;21.90;66.80
21439;DHT22;10880;50.302;18.736;2023-06-10T00:29:05;21.90;66.50
21439;DHT22;10880;50.302;18.736;2023-06-10T00:31:33;21.90;66.60
21439;DHT22;10880;50.302;18.736;2023-06-10T00:34:00;21.90;66.30
21439;DHT22;10880;50.302;18.736;2023-06-10T00:36:28;21.90;66.30
21439;DHT22;10880;50.302;18.736;2023-06-10T00:38:56;21.90;66.80
21439;DHT22;10880;50.302;18.736;2023-06-10T00:41:23;21.90;66.20
21439;DHT22;10880;50.302;18.736;2023-06-10T00:43:50;21.80;66.30
21439;DHT22;10880;50.302;18.736;2023-06-10T00:48:45;21.80;66.10
21439;DHT22;10880;50.302;18.736;2023-06-10T00:53:42;21.90;66.30
21439;DHT22;10880;50.302;18.736;2023-06-10T00:58:36;21.80;66.10
21439;DHT22;10880;50.302;18.736;2023-06-10T01:01:02;21.80;66.20
21439;DHT22;10880;50.302;18.736;2023-06-10T01:03:30;21.80;66.60
21439;DHT22;10880;50.302;18.736;2023-06-10T01:08:57;21.80;66.40
21439;DHT22;10880;50.302;18.736;2023-06-10T01:11:33;21.80;66.90
21439;DHT22;10880;50.302;18.736;2023-06-10T01:14:01;21.80;66.70
21439;DHT22;10880;50.302;18.736;2023-06-10T01:16:28;21.80;66.70
21439;DHT22;10880;50.302;18.736;2023-06-10T01:18:55;21.80;66.10
21439;DHT22;10880;50.302;18.736;2023-06-10T01:21:24;21.80;66.10
21439;DHT22;10880;50.302;18.736;2023-06-10T01:23:52;21.80;66.50
21439;DHT22;10880;50.302;18.736;2023-06-10T01:26:30;21.80;66.80
21439;DHT22;10880;50.302;18.736;2023-06-10T01:29:51;21.80;66.90
21439;DHT22;10880;50.302;18.736;2023-06-10T01:32:27;21.70;67.00
21439;DHT22;10880;50.302;18.736;2023-06-10T01:34:56;21.70;66.90
21439;DHT22;10880;50.302;18.736;2023-06-10T01:37:24;21.70;66.60
21439;DHT22;10880;50.302;18.736;2023-06-10T01:42:19;21.70;66.00
21439;DHT22;10880;50.302;18.736;2023-06-10T01:44:46;21.70;66.50
21439;DHT22;10880;50.302;18.736;2023-06-10T01:47:13;21.60;65.80
21439;DHT22;10880;50.302;18.736;2023-06-10T01:49:39;21.60;65.90
21439;DHT22;10880;50.302;18.736;2023-06-10T01:52:07;21.60;66.30
21439;DHT22;10880;50.302;18.736;2023-06-10T01:57:01;21.60;66.10
21439;DHT22;10880;50.302;18.736;2023-06-10T01:59:28;21.60;66.20
21439;DHT22;10880;50.302;18.736;2023-06-10T02:04:21;21.60;66.20
21439;DHT22;10880;50.302;18.736;2023-06-10T02:06:47;21.60;66.20
21439;DHT22;10880;50.302;18.736;2023-06-10T02:09:14;21.60;66.60
21439;DHT22;10880;50.302;18.736;2023-06-10T02:11:40;21.60;66.30
21439;DHT22;10880;50.302;18.736;2023-06-10T02:14:07;21.60;66.20
21439;DHT22;10880;50.302;18.736;2023-06-10T02:16:33;21.60;66.30
21439;DHT22;10880;50.302;18.736;2023-06-10T02:21:27;21.50;66.40
21439;DHT22;10880;50.302;18.736;2023-06-10T02:23:54;21.50;66.30
21439;DHT22;10880;50.302;18.736;2023-06-10T02:26:20;21.60;66.50
21439;DHT22;10880;50.302;18.736;2023-06-10T02:28:47;21.50;66.70
21439;DHT22;10880;50.302;18.736;2023-06-10T02:31:14;21.60;66.70
21439;DHT22;10880;50.302;18.736;2023-06-10T02:33:44;21.50;66.90
21439;DHT22;10880;50.302;18.736;2023-06-10T02:38:39;21.50;66.50
21439;DHT22;10880;50.302;18.736;2023-06-10T02:41:06;21.50;66.90
21439;DHT22;10880;50.302;18.736;2023-06-10T02:48:28;21.50;66.60
21439;DHT22;10880;50.302;18.736;2023-06-10T02:50:55;21.50;66.50
21439;DHT22;10880;50.302;18.736;2023-06-10T02:53:28;21.50;66.90
21439;DHT22;10880;50.302;18.736;2023-06-10T02:56:02;21.50;66.80
21439;DHT22;10880;50.302;18.736;2023-06-10T02:58:28;21.50;66.70
21439;DHT22;10880;50.302;18.736;2023-06-10T03:00:55;21.50;66.70
21439;DHT22;10880;50.302;18.736;2023-06-10T03:03:23;21.50;67.00
21439;DHT22;10880;50.302;18.736;2023-06-10T03:05:59;21.60;67.00
21439;DHT22;10880;50.302;18.736;2023-06-10T03:08:26;21.50;66.70
21439;DHT22;10880;50.302;18.736;2023-06-10T03:10:53;21.50;66.80
21439;DHT22;10880;50.302;18.736;2023-06-10T03:13:20;21.50;66.90
21439;DHT22;10880;50.302;18.736;2023-06-10T03:18:18;21.50;66.80
21439;DHT22;10880;50.302;18.736;2023-06-10T03:20:45;21.50;66.90
21439;DHT22;10880;50.302;18.736;2023-06-10T03:23:11;21.50;67.00
21439;DHT22;10880;50.302;18.736;2023-06-10T03:25:40;21.50;67.10
21439;DHT22;10880;50.302;18.736;2023-06-10T03:30:36;21.60;67.00
21439;DHT22;10880;50.302;18.736;2023-06-10T03:37:57;21.50;66.90
21439;DHT22;10880;50.302;18.736;2023-06-10T03:42:51;21.60;67.10
21439;DHT22;10880;50.302;18.736;2023-06-10T03:47:49;21.60;67.20
21439;DHT22;10880;50.302;18.736;2023-06-10T03:52:45;21.60;67.30
21439;DHT22;10880;50.302;18.736;2023-06-10T03:55:14;21.70;67.70
21439;DHT22;10880;50.302;18.736;2023-06-10T03:57:44;21.70;67.80
21439;DHT22;10880;50.302;18.736;2023-06-10T04:00:12;21.70;67.70
21439;DHT22;10880;50.302;18.736;2023-06-10T04:02:44;21.70;67.90
21439;DHT22;10880;50.302;18.736;2023-06-10T04:05:28;21.70;67.90
21439;DHT22;10880;50.302;18.736;2023-06-10T04:07:55;21.80;67.50
21439;DHT22;10880;50.302;18.736;2023-06-10T04:12:48;21.80;67.60
21439;DHT22;10880;50.302;18.736;2023-06-10T04:15:14;21.80;67.70
21439;DHT22;10880;50.302;18.736;2023-06-10T04:17:43;21.90;67.80
21439;DHT22;10880;50.302;18.736;2023-06-10T04:20:10;21.90;67.70
21439;DHT22;10880;50.302;18.736;2023-06-10T04:22:38;21.90;68.00
21439;DHT22;10880;50.302;18.736;2023-06-10T04:25:05;21.90;67.70
21439;DHT22;10880;50.302;18.736;2023-06-10T04:29:58;22.00;68.00
21439;DHT22;10880;50.302;18.736;2023-06-10T04:32:25;22.10;68.10
21439;DHT22;10880;50.302;18.736;2023-06-10T04:34:53;22.10;68.40
21439;DHT22;10880;50.302;18.736;2023-06-10T04:37:19;22.20;67.90
21439;DHT22;10880;50.302;18.736;2023-06-10T04:39:47;22.20;68.20
21439;DHT22;10880;50.302;18.736;2023-06-10T04:42:14;22.20;68.10
21439;DHT22;10880;50.302;18.736;2023-06-10T04:44:41;22.30;68.00
21439;DHT22;10880;50.302;18.736;2023-06-10T04:47:08;22.30;68.10
21439;DHT22;10880;50.302;18.736;2023-06-10T04:49:35;22.30;68.10
21439;DHT22;10880;50.302;18.736;2023-06-10T04:52:03;22.40;68.40
21439;DHT22;10880;50.302;18.736;2023-06-10T04:54:35;22.40;68.40
21439;DHT22;10880;50.302;18.736;2023-06-10T04:57:01;22.40;68.10
21439;DHT22;10880;50.302;18.736;2023-06-10T04:59:28;22.50;68.10
21439;DHT22;10880;50.302;18.736;2023-06-10T05:04:22;22.50;68.10
21439;DHT22;10880;50.302;18.736;2023-06-10T05:06:49;22.70;68.50
21439;DHT22;10880;50.302;18.736;2023-06-10T05:09:15;22.60;68.00
21439;DHT22;10880;50.302;18.736;2023-06-10T05:11:42;22.70;68.30
21439;DHT22;10880;50.302;18.736;2023-06-10T05:14:09;22.70;67.80
21439;DHT22;10880;50.302;18.736;2023-06-10T05:16:35;22.70;67.80
21439;DHT22;10880;50.302;18.736;2023-06-10T05:19:01;22.70;67.80
21439;DHT22;10880;50.302;18.736;2023-06-10T05:21:28;22.80;67.60
21439;DHT22;10880;50.302;18.736;2023-06-10T05:23:54;22.80;67.60
21439;DHT22;10880;50.302;18.736;2023-06-10T05:26:21;22.90;67.90
21439;DHT22;10880;50.302;18.736;2023-06-10T05:28:47;22.80;67.40
21439;DHT22;10880;50.302;18.736;2023-06-10T05:31:14;22.90;67.60
21439;DHT22;10880;50.302;18.736;2023-06-10T05:36:08;22.90;67.50
21439;DHT22;10880;50.302;18.736;2023-06-10T05:38:34;22.90;67.50
21439;DHT22;10880;50.302;18.736;2023-06-10T05:43:27;23.00;67.70
21439;DHT22;10880;50.302;18.736;2023-06-10T05:45:54;23.00;68.20
21439;DHT22;10880;50.302;18.736;2023-06-10T05:48:20;23.10;68.00
21439;DHT22;10880;50.302;18.736;2023-06-10T05:50:47;23.10;68.10
21439;DHT22;10880;50.302;18.736;2023-06-10T05:53:15;23.20;68.40
21439;DHT22;10880;50.302;18.736;2023-06-10T05:55:45;23.20;69.00
21439;DHT22;10880;50.302;18.736;2023-06-10T05:58:13;23.30;69.10
21439;DHT22;10880;50.302;18.736;2023-06-10T06:00:40;23.30;69.90
21439;DHT22;10880;50.302;18.736;2023-06-10T06:03:07;23.40;70.10
21439;DHT22;10880;50.302;18.736;2023-06-10T06:05:37;23.60;70.50
21439;DHT22;10880;50.302;18.736;2023-06-10T06:08:05;23.70;70.90
21439;DHT22;10880;50.302;18.736;2023-06-10T06:13:00;23.90;69.70
21439;DHT22;10880;50.302;18.736;2023-06-10T06:15:27;24.10;69.60
21439;DHT22;10880;50.302;18.736;2023-06-10T06:17:54;24.20;68.40
21439;DHT22;10880;50.302;18.736;2023-06-10T06:20:20;24.30;67.10
21439;DHT22;10880;50.302;18.736;2023-06-10T06:22:47;24.30;67.10
21439;DHT22;10880;50.302;18.736;2023-06-10T06:25:13;24.40;66.80
21439;DHT22;10880;50.302;18.736;2023-06-10T06:27:40;24.40;65.30
21439;DHT22;10880;50.302;18.736;2023-06-10T06:30:07;24.40;65.60
21439;DHT22;10880;50.302;18.736;2023-06-10T06:32:35;24.40;65.30
21439;DHT22;10880;50.302;18.736;2023-06-10T06:35:01;24.30;64.90
21439;DHT22;10880;50.302;18.736;2023-06-10T06:40:11;24.20;64.50
21439;DHT22;10880;50.302;18.736;2023-06-10T06:42:38;24.20;64.10
21439;DHT22;10880;50.302;18.736;2023-06-10T06:45:24;24.20;64.30
21439;DHT22;10880;50.302;18.736;2023-06-10T06:47:51;24.20;64.10
21439;DHT22;10880;50.302;18.736;2023-06-10T06:50:17;24.10;63.90
21439;DHT22;10880;50.302;18.736;2023-06-10T07:12:23;24.00;64.30
21439;DHT22;10880;50.302;18.736;2023-06-10T07:19:45;24.00;64.20
21439;DHT22;10880;50.302;18.736;2023-06-10T07:32:04;24.00;64.20
21439;DHT22;10880;50.302;18.736;2023-06-10T07:41:52;24.00;63.80
21439;DHT22;10880;50.302;18.736;2023-06-10T07:49:13;24.00;63.70
21439;DHT22;10880;50.302;18.736;2023-06-10T08:01:28;24.00;63.90
21439;DHT22;10880;50.302;18.736;2023-06-10T08:03:56;24.10;64.40
21439;DHT22;10880;50.302;18.736;2023-06-10T08:06:22;24.10;64.20
21439;DHT22;10880;50.302;18.736;2023-06-10T08:08:49;24.10;63.90
21439;DHT22;10880;50.302;18.736;2023-06-10T08:11:15;24.10;64.00
21439;DHT22;10880;50.302;18.736;2023-06-10T08:13:42;24.10;64.00
21439;DHT22;10880;50.302;18.736;2023-06-10T08:16:08;24.20;64.00
21439;DHT22;10880;50.302;18.736;2023-06-10T08:18:34;24.10;63.80
21439;DHT22;10880;50.302;18.736;2023-06-10T08:25:54;24.20;63.70
21439;DHT22;10880;50.302;18.736;2023-06-10T08:28:21;24.20;63.70
21439;DHT22;10880;50.302;18.736;2023-06-10T08:33:14;24.20;63.30
21439;DHT22;10880;50.302;18.736;2023-06-10T08:35:41;24.20;63.50
21439;DHT22;10880;50.302;18.736;2023-06-10T08:38:07;24.20;63.20
21439;DHT22;10880;50.302;18.736;2023-06-10T08:45:31;24.20;63.30
21439;DHT22;10880;50.302;18.736;2023-06-10T08:47:59;24.20;63.80
21439;DHT22;10880;50.302;18.736;2023-06-10T08:50:26;24.20;63.60
21439;DHT22;10880;50.302;18.736;2023-06-10T08:52:58;24.20;63.20
21439;DHT22;10880;50.302;18.736;2023-06-10T08:55:30;24.20;63.00
21439;DHT22;10880;50.302;18.736;2023-06-10T08:58:02;24.20;63.70
21439;DHT22;10880;50.302;18.736;2023-06-10T09:00:30;24.20;62.80
21439;DHT22;10880;50.302;18.736;2023-06-10T09:02:58;24.20;62.80
21439;DHT22;10880;50.302;18.736;2023-06-10T09:05:25;24.20;62.80
21439;DHT22;10880;50.302;18.736;2023-06-10T09:12:46;24.30;63.00
21439;DHT22;10880;50.302;18.736;2023-06-10T09:17:43;24.30;63.10
21439;DHT22;10880;50.302;18.736;2023-06-10T09:25:06;24.50;63.30
21439;DHT22;10880;50.302;18.736;2023-06-10T09:28:04;24.40;63.20
21439;DHT22;10880;50.302;18.736;2023-06-10T09:30:34;24.50;63.60
21439;DHT22;10880;50.302;18.736;2023-06-10T09:33:03;24.50;63.70
21439;DHT22;10880;50.302;18.736;2023-06-10T09:35:35;24.60;63.70
21439;DHT22;10880;50.302;18.736;2023-06-10T09:38:01;24.60;62.80
21439;DHT22;10880;50.302;18.736;2023-06-10T09:40:28;24.70;63.20
21439;DHT22;10880;50.302;18.736;2023-06-10T09:42:59;24.70;62.70
21439;DHT22;10880;50.302;18.736;2023-06-10T09:45:32;24.70;62.90
21439;DHT22;10880;50.302;18.736;2023-06-10T09:47:58;24.80;63.20
21439;DHT22;10880;50.302;18.736;2023-06-10T09:50:25;24.80;62.80
21439;DHT22;10880;50.302;18.736;2023-06-10T09:52:52;24.90;63.10
21439;DHT22;10880;50.302;18.736;2023-06-10T09:55:18;25.00;63.10
21439;DHT22;10880;50.302;18.736;2023-06-10T09:57:53;25.00;63.10
21439;DHT22;10880;50.302;18.736;2023-06-10T10:00:22;25.00;63.60
21439;DHT22;10880;50.302;18.736;2023-06-10T10:02:50;25.10;63.50
21439;DHT22;10880;50.302;18.736;2023-06-10T10:05:19;25.10;63.50
21439;DHT22;10880;50.302;18.736;2023-06-10T10:07:48;25.20;63.50
21439;DHT22;10880;50.302;18.736;2023-06-10T10:10:18;25.20;62.70
21439;DHT22;10880;50.302;18.736;2023-06-10T10:12:47;25.30;62.80
21439;DHT22;10880;50.302;18.736;2023-06-10T10:15:31;25.30;62.60
21439;DHT22;10880;50.302;18.736;2023-06-10T10:20:51;25.40;62.30
21439;DHT22;10880;50.302;18.736;2023-06-10T10:23:26;25.40;62.30
21439;DHT22;10880;50.302;18.736;2023-06-10T10:25:57;25.40;62.30
21439;DHT22;10880;50.302;18.736;2023-06-10T10:28:34;25.50;61.90
21439;DHT22;10880;50.302;18.736;2023-06-10T10:31:10;25.50;61.70
21439;DHT22;10880;50.302;18.736;2023-06-10T10:34:01;25.60;61.80
21439;DHT22;10880;50.302;18.736;2023-06-10T10:36:28;25.60;61.50
21439;DHT22;10880;50.302;18.736;2023-06-10T10:38:55;25.70;61.60
21439;DHT22;10880;50.302;18.736;2023-06-10T10:41:23;25.70;61.50
21439;DHT22;10880;50.302;18.736;2023-06-10T10:43:52;25.70;61.20
21439;DHT22;10880;50.302;18.736;2023-06-10T10:46:20;25.80;61.00
21439;DHT22;10880;50.302;18.736;2023-06-10T10:48:52;25.80;60.60
21439;DHT22;10880;50.302;18.736;2023-06-10T10:51:18;25.80;61.00
21439;DHT22;10880;50.302;18.736;2023-06-10T10:54:12;25.90;60.70
21439;DHT22;10880;50.302;18.736;2023-06-10T10:59:59;26.00;61.30
21439;DHT22;10880;50.302;18.736;2023-06-10T11:02:43;26.00;60.80
21439;DHT22;10880;50.302;18.736;2023-06-10T11:05:14;26.00;59.60
21439;DHT22;10880;50.302;18.736;2023-06-10T11:07:52;26.10;59.60
21439;DHT22;10880;50.302;18.736;2023-06-10T11:10:38;26.00;59.40
21439;DHT22;10880;50.302;18.736;2023-06-10T11:13:14;26.10;59.20
21439;DHT22;10880;50.302;18.736;2023-06-10T11:15:51;26.20;58.70
21439;DHT22;10880;50.302;18.736;2023-06-10T11:18:28;26.10;58.40
21439;DHT22;10880;50.302;18.736;2023-06-10T11:21:03;26.20;58.40
21439;DHT22;10880;50.302;18.736;2023-06-10T11:23:34;26.10;58.30
21439;DHT22;10880;50.302;18.736;2023-06-10T11:34:05;26.20;58.00
21439;DHT22;10880;50.302;18.736;2023-06-10T11:36:34;26.20;57.80
21439;DHT22;10880;50.302;18.736;2023-06-10T11:39:04;26.20;57.70
21439;DHT22;10880;50.302;18.736;2023-06-10T11:44:08;26.20;57.80
21439;DHT22;10880;50.302;18.736;2023-06-10T11:51:39;26.30;57.50
21439;DHT22;10880;50.302;18.736;2023-06-10T11:54:10;26.30;57.40
21439;DHT22;10880;50.302;18.736;2023-06-10T11:59:05;26.30;57.20
21439;DHT22;10880;50.302;18.736;2023-06-10T12:01:34;26.30;56.90
21439;DHT22;10880;50.302;18.736;2023-06-10T12:04:06;26.30;57.10
21439;DHT22;10880;50.302;18.736;2023-06-10T12:06:39;26.40;56.80
21439;DHT22;10880;50.302;18.736;2023-06-10T12:09:12;26.40;56.80
21439;DHT22;10880;50.302;18.736;2023-06-10T12:14:06;26.40;57.10
21439;DHT22;10880;50.302;18.736;2023-06-10T12:16:33;26.50;56.60
21439;DHT22;10880;50.302;18.736;2023-06-10T12:19:03;26.50;56.70
21439;DHT22;10880;50.302;18.736;2023-06-10T12:21:31;26.50;56.60
21439;DHT22;10880;50.302;18.736;2023-06-10T12:24:08;26.50;56.20
21439;DHT22;10880;50.302;18.736;2023-06-10T12:26:39;26.50;57.00
21439;DHT22;10880;50.302;18.736;2023-06-10T12:29:16;26.50;56.10
21439;DHT22;10880;50.302;18.736;2023-06-10T12:32:03;26.50;55.90
21439;DHT22;10880;50.302;18.736;2023-06-10T12:34:38;26.60;55.90
21439;DHT22;10880;50.302;18.736;2023-06-10T12:37:09;26.60;55.60
21439;DHT22;10880;50.302;18.736;2023-06-10T12:39:40;26.60;55.90
21439;DHT22;10880;50.302;18.736;2023-06-10T12:42:09;26.60;55.40
21439;DHT22;10880;50.302;18.736;2023-06-10T12:44:39;26.60;55.60
21439;DHT22;10880;50.302;18.736;2023-06-10T12:47:09;26.70;55.10
21439;DHT22;10880;50.302;18.736;2023-06-10T12:49:36;26.70;55.70
21439;DHT22;10880;50.302;18.736;2023-06-10T12:54:30;26.70;54.90
21439;DHT22;10880;50.302;18.736;2023-06-10T12:56:57;26.70;55.10
21439;DHT22;10880;50.302;18.736;2023-06-10T12:59:23;26.70;56.20
21439;DHT22;10880;50.302;18.736;2023-06-10T13:01:54;26.70;55.30
21439;DHT22;10880;50.302;18.736;2023-06-10T13:04:21;26.70;55.30
21439;DHT22;10880;50.302;18.736;2023-06-10T13:06:48;26.80;55.00
21439;DHT22;10880;50.302;18.736;2023-06-10T13:09:15;26.80;55.00
21439;DHT22;10880;50.302;18.736;2023-06-10T13:11:42;26.80;54.80
21439;DHT22;10880;50.302;18.736;2023-06-10T13:14:10;26.80;54.60
21439;DHT22;10880;50.302;18.736;2023-06-10T13:19:05;26.80;54.30
21439;DHT22;10880;50.302;18.736;2023-06-10T13:21:32;26.80;54.50
21439;DHT22;10880;50.302;18.736;2023-06-10T13:31:19;26.80;54.80
21439;DHT22;10880;50.302;18.736;2023-06-10T13:50:54;26.80;55.20
21439;DHT22;10880;50.302;18.736;2023-06-10T14:00:40;26.80;55.70
21439;DHT22;10880;50.302;18.736;2023-06-10T14:03:07;26.70;55.80
21439;DHT22;10880;50.302;18.736;2023-06-10T14:08:00;26.70;56.30
21439;DHT22;10880;50.302;18.736;2023-06-10T14:10:26;26.70;56.40
21439;DHT22;10880;50.302;18.736;2023-06-10T14:12:53;26.60;56.50
21439;DHT22;10880;50.302;18.736;2023-06-10T14:15:19;26.60;56.60
21439;DHT22;10880;50.302;18.736;2023-06-10T14:17:47;26.60;56.60
21439;DHT22;10880;50.302;18.736;2023-06-10T14:20:13;26.60;56.60
21439;DHT22;10880;50.302;18.736;2023-06-10T14:22:40;26.50;56.60
21439;DHT22;10880;50.302;18.736;2023-06-10T14:25:06;26.50;56.10
21439;DHT22;10880;50.302;18.736;2023-06-10T14:27:33;26.40;56.10
21439;DHT22;10880;50.302;18.736;2023-06-10T14:34:56;26.30;55.90
21439;DHT22;10880;50.302;18.736;2023-06-10T14:42:16;26.00;55.80
21439;DHT22;10880;50.302;18.736;2023-06-10T14:44:43;25.90;55.80
21439;DHT22;10880;50.302;18.736;2023-06-10T14:49:39;25.80;55.80
21439;DHT22;10880;50.302;18.736;2023-06-10T14:59:34;25.60;55.70
21439;DHT22;10880;50.302;18.736;2023-06-10T15:11:49;25.40;55.70
21439;DHT22;10880;50.302;18.736;2023-06-10T15:16:43;25.40;55.70
21439;DHT22;10880;50.302;18.736;2023-06-10T16:06:13;25.30;56.50
21439;DHT22;10880;50.302;18.736;2023-06-10T16:08:45;25.20;56.40
21439;DHT22;10880;50.302;18.736;2023-06-10T16:11:12;25.30;56.60
21439;DHT22;10880;50.302;18.736;2023-06-10T16:13:41;25.20;56.60
21439;DHT22;10880;50.302;18.736;2023-06-10T16:18:43;25.30;56.60
21439;DHT22;10880;50.302;18.736;2023-06-10T18:10:26;24.80;58.10
21439;DHT22;10880;50.302;18.736;2023-06-10T18:12:52;24.90;62.80
21439;DHT22;10880;50.302;18.736;2023-06-10T19:19:01;24.40;57.20
21439;DHT22;10880;50.302;18.736;2023-06-10T20:05:34;23.90;57.10
21439;DHT22;10880;50.302;18.736;2023-06-10T20:54:35;23.00;59.30
21439;DHT22;10880;50.302;18.736;2023-06-10T22:56:59;22.10;58.50
